Time;durP1;ratioP1;P1;durP2;ratioP2;P2;SDS_P1;SDS_P2;PMS_P1;PMS_P2;Temp;Humidity;BMP_temperature;BMP_pressure;BME280_temperature;BME280_humidity;BME280_pressure;Samples;Min_cycle;Max_cycle;Signal;HPM_P1;HPM_P2
2021/11/25 00:01:05;;;;;;;52.58;23.22;;;;;;;-1.52;82.29;99800.88;1640641;85;21086;-82
2021/11/25 00:03:32;;;;;;;52.62;20.15;;;;;;;-1.53;83.41;99799.53;1644909;87;21058;-83
2021/11/25 00:05:58;;;;;;;57.38;19.12;;;;;;;-1.53;83.36;99800.43;1645879;87;21364;-82
2021/11/25 00:08:25;;;;;;;53.58;18.30;;;;;;;-1.52;83.43;99798.32;1648619;83;21063;-82
2021/11/25 00:10:51;;;;;;;41.45;18.07;;;;;;;-1.53;83.58;99801.70;1665399;85;21082;-81
2021/11/25 00:13:18;;;;;;;43.52;17.05;;;;;;;-1.52;83.85;99798.32;1672053;84;21090;-83
2021/11/25 00:15:44;;;;;;;39.50;17.73;;;;;;;-1.51;83.87;99801.73;1674210;86;21102;-83
2021/11/25 00:18:11;;;;;;;37.20;17.40;;;;;;;-1.51;84.09;99805.17;1657343;86;21076;-82
2021/11/25 00:20:37;;;;;;;37.53;16.60;;;;;;;-1.51;84.34;99803.89;1671317;84;21070;-82
2021/11/25 00:23:04;;;;;;;45.03;16.50;;;;;;;-1.52;83.91;99805.97;1674193;85;21108;-83
2021/11/25 00:25:31;;;;;;;50.43;19.70;;;;;;;-1.52;83.65;99806.39;1673265;84;21047;-83
2021/11/25 00:27:57;;;;;;;47.98;21.65;;;;;;;-1.55;83.63;99810.98;1685210;85;21004;-82
2021/11/25 00:30:24;;;;;;;56.33;19.92;;;;;;;-1.55;83.53;99812.26;1669871;84;20985;-82
2021/11/25 00:32:50;;;;;;;60.05;21.37;;;;;;;-1.60;83.46;99812.08;1663784;85;21049;-81
2021/11/25 00:35:17;;;;;;;53.65;19.48;;;;;;;-1.62;83.88;99815.39;1671047;84;21575;-81
2021/11/25 00:37:43;;;;;;;60.12;20.80;;;;;;;-1.62;83.45;99812.84;1686943;84;21035;-82
2021/11/25 00:40:14;;;;;;;50.73;21.68;;;;;;;-1.65;83.64;99804.69;1659358;85;21056;-81
2021/11/25 00:42:41;;;;;;;65.08;24.32;;;;;;;-1.66;83.46;99805.48;1649612;86;21500;-80
2021/11/25 00:45:10;;;;;;;63.70;23.02;;;;;;;-1.66;83.79;99805.48;1665103;84;21042;-83
2021/11/25 00:47:36;;;;;;;68.95;25.00;;;;;;;-1.66;83.60;99802.94;1665917;86;21076;-80
2021/11/25 00:50:07;;;;;;;57.70;23.27;;;;;;;-1.64;83.77;99801.72;1666199;85;21043;-84
2021/11/25 00:52:34;;;;;;;71.95;26.37;;;;;;;-1.68;83.49;99800.74;1668574;82;21095;-83
2021/11/25 00:55:01;;;;;;;62.62;26.02;;;;;;;-1.68;83.71;99799.88;1670848;86;21016;-83
2021/11/25 00:57:27;;;;;;;57.53;21.65;;;;;;;-1.66;83.71;99799.53;1670114;85;21061;-83
2021/11/25 00:59:54;;;;;;;52.78;19.48;;;;;;;-1.70;83.32;99794.72;1661552;85;21087;-82
2021/11/25 01:02:21;;;;;;;46.80;19.07;;;;;;;-1.74;83.12;99792.88;1660883;85;21044;-83
2021/11/25 01:04:49;;;;;;;59.60;22.65;;;;;;;-1.82;83.46;99797.70;1667353;86;21064;-81
2021/11/25 01:07:16;;;;;;;58.17;22.30;;;;;;;-1.84;83.26;99794.65;1671550;86;21032;-83
2021/11/25 01:09:42;;;;;;;48.20;19.00;;;;;;;-1.91;82.87;99793.57;1672946;84;21032;-82
2021/11/25 01:12:11;;;;;;;39.53;16.82;;;;;;;-2.01;82.64;99791.09;1668035;85;21047;-80
2021/11/25 01:14:38;;;;;;;47.15;17.30;;;;;;;-2.02;83.19;99787.20;1671102;83;21002;-82
2021/11/25 01:17:06;;;;;;;43.85;18.05;;;;;;;-2.03;83.14;99787.63;1671598;85;21046;-81
2021/11/25 01:19:33;;;;;;;37.13;16.25;;;;;;;-2.03;83.07;99787.63;1669595;85;21041;-81
2021/11/25 01:21:59;;;;;;;35.33;15.35;;;;;;;-2.06;83.23;99783.67;1669119;86;21023;-82
2021/11/25 01:24:26;;;;;;;36.17;15.68;;;;;;;-2.07;83.33;99788.70;1664274;86;21036;-83
2021/11/25 01:26:52;;;;;;;38.30;15.68;;;;;;;-2.09;83.38;99789.05;1673993;86;21070;-81
2021/11/25 01:29:19;;;;;;;41.90;16.10;;;;;;;-2.12;83.42;99785.14;1672991;86;21063;-82
2021/11/25 01:31:45;;;;;;;37.63;15.48;;;;;;;-2.14;83.50;99779.98;1668686;86;21060;-82
2021/11/25 01:34:12;;;;;;;34.92;15.03;;;;;;;-2.16;83.34;99775.66;1673954;86;21052;-82
2021/11/25 01:36:38;;;;;;;35.25;15.50;;;;;;;-2.17;83.32;99777.72;1657029;86;21126;-82
2021/11/25 01:39:06;;;;;;;34.03;14.05;;;;;;;-2.18;83.38;99779.83;1666827;85;20999;-82
2021/11/25 01:41:32;;;;;;;45.30;15.83;;;;;;;-2.20;83.66;99781.03;1668314;84;21075;-82
2021/11/25 01:43:59;;;;;;;34.27;13.62;;;;;;;-2.26;83.66;99772.75;1673234;84;21058;-81
2021/11/25 01:46:26;;;;;;;37.48;14.85;;;;;;;-2.26;83.56;99780.39;1675914;84;21018;-81
2021/11/25 01:48:53;;;;;;;37.67;14.98;;;;;;;-2.28;83.71;99778.20;1664070;85;21043;-82
2021/11/25 01:51:22;;;;;;;34.38;15.32;;;;;;;-2.28;83.95;99776.92;1668488;86;21064;-82
2021/11/25 01:53:50;;;;;;;40.52;16.67;;;;;;;-2.29;83.64;99774.31;1672423;86;21083;-80
2021/11/25 01:56:17;;;;;;;39.48;15.88;;;;;;;-2.31;84.01;99772.97;1670957;86;21051;-81
2021/11/25 01:58:48;;;;;;;31.23;15.13;;;;;;;-2.30;83.86;99773.45;1646478;86;21119;-82
2021/11/25 02:01:18;;;;;;;34.23;15.55;;;;;;;-2.33;83.20;99769.92;1643244;86;21069;-81
2021/11/25 02:03:47;;;;;;;37.35;15.30;;;;;;;-2.36;83.54;99763.04;1672442;86;21126;-82
2021/11/25 02:06:16;;;;;;;38.33;15.55;;;;;;;-2.35;84.00;99766.45;1673840;86;21054;-83
2021/11/25 02:08:44;;;;;;;39.63;17.12;;;;;;;-2.33;84.13;99763.55;1671793;85;21027;-82
2021/11/25 02:11:11;;;;;;;35.78;17.12;;;;;;;-2.35;84.18;99770.27;1687423;84;21104;-80
2021/11/25 02:13:38;;;;;;;33.35;15.90;;;;;;;-2.50;84.05;99762.52;1667829;86;21071;-82
2021/11/25 02:16:05;;;;;;;40.30;16.02;;;;;;;-2.53;83.88;99760.26;1668867;86;21043;-81
2021/11/25 02:18:31;;;;;;;34.92;14.93;;;;;;;-2.58;83.40;99756.69;1659257;85;21078;-82
2021/11/25 02:21:01;;;;;;;42.88;17.42;;;;;;;-2.63;83.01;99754.84;1645538;87;21097;-82
2021/11/25 02:23:29;;;;;;;42.65;17.15;;;;;;;-2.68;83.22;99762.69;1646220;87;21097;-83
2021/11/25 02:25:57;;;;;;;40.90;16.70;;;;;;;-2.72;83.41;99755.74;1658158;86;21023;-82
2021/11/25 02:28:29;;;;;;;42.13;17.67;;;;;;;-2.73;83.65;99758.22;1669226;86;21039;-81
2021/11/25 02:30:56;;;;;;;40.73;16.82;;;;;;;-2.72;84.12;99760.84;1662309;86;21055;-81
2021/11/25 02:33:23;;;;;;;50.65;18.00;;;;;;;-2.68;84.19;99759.28;1690345;84;21139;-81
2021/11/25 02:35:50;;;;;;;32.42;14.78;;;;;;;-2.66;84.33;99757.25;1662453;86;21080;-82
2021/11/25 02:38:17;;;;;;;40.52;16.50;;;;;;;-2.61;84.48;99746.86;1670333;85;21044;-82
2021/11/25 02:40:50;;;;;;;38.17;14.43;;;;;;;-2.57;84.40;99748.22;1652476;86;21047;-81
2021/11/25 02:43:21;;;;;;;42.50;15.68;;;;;;;-2.54;84.06;99750.91;1688613;83;21011;-81
2021/11/25 02:46:08;;;;;;;40.35;17.23;;;;;;;-2.55;85.02;99742.37;1669443;85;21050;-81
2021/11/25 02:48:48;;;;;;;40.30;16.23;;;;;;;-2.56;84.56;99742.34;1668109;85;21115;-80
2021/11/25 02:51:22;;;;;;;37.42;16.57;;;;;;;-2.57;84.07;99740.59;1650561;84;21079;-80
2021/11/25 02:53:50;;;;;;;46.53;17.50;;;;;;;-2.56;84.70;99736.83;1672793;85;21011;-81
2021/11/25 02:56:24;;;;;;;33.45;14.95;;;;;;;-2.52;84.49;99736.13;1651334;86;21033;-82
2021/11/25 02:58:52;;;;;;;43.70;16.00;;;;;;;-2.51;84.46;99739.54;1672026;85;21074;-81
2021/11/25 03:01:28;;;;;;;39.45;16.17;;;;;;;-2.50;84.28;99732.38;1671670;84;20965;-80
2021/11/25 03:03:55;;;;;;;42.98;16.70;;;;;;;-2.49;84.18;99729.86;1660550;86;21051;-82
2021/11/25 03:06:22;;;;;;;44.67;16.90;;;;;;;-2.46;84.17;99726.59;1667931;86;21036;-82
2021/11/25 03:08:49;;;;;;;35.50;15.08;;;;;;;-2.47;83.98;99731.20;1667759;85;21119;-80
2021/11/25 03:11:20;;;;;;;38.42;16.82;;;;;;;-2.51;83.88;99724.27;1665119;84;21000;-81
2021/11/25 03:13:50;;;;;;;42.03;17.20;;;;;;;-2.54;83.65;99727.98;1674549;83;21060;-82
2021/11/25 03:16:19;;;;;;;48.90;18.00;;;;;;;-2.58;84.07;99729.95;1659534;83;21100;-82
2021/11/25 03:18:47;;;;;;;39.40;17.77;;;;;;;-2.58;83.92;99718.09;1646267;86;21050;-78
2021/11/25 03:21:15;;;;;;;43.28;17.12;;;;;;;-2.60;83.98;99719.71;1665617;86;21054;-81
2021/11/25 03:23:45;;;;;;;41.60;17.45;;;;;;;-2.60;84.16;99715.89;1658657;86;21012;-80
2021/11/25 03:26:16;;;;;;;41.83;16.42;;;;;;;-2.58;83.89;99709.17;1669111;85;20993;-81
2021/11/25 03:28:46;;;;;;;32.50;14.20;;;;;;;-2.62;83.60;99712.01;1666957;86;21032;-81
2021/11/25 03:31:19;;;;;;;32.40;14.30;;;;;;;-2.67;83.11;99716.05;1666110;85;21025;-81
2021/11/25 03:33:46;;;;;;;32.42;13.58;;;;;;;-2.73;82.86;99717.50;1665511;85;21032;-80
2021/11/25 03:36:14;;;;;;;33.50;13.28;;;;;;;-2.91;82.03;99717.66;1667813;85;21080;-82
2021/11/25 03:38:41;;;;;;;30.75;13.28;;;;;;;-3.00;81.88;99715.23;1670219;85;21022;-81
2021/11/25 03:41:10;;;;;;;30.15;12.43;;;;;;;-3.04;82.13;99710.83;1670776;86;21484;-81
2021/11/25 03:43:37;;;;;;;30.55;12.15;;;;;;;-3.12;81.99;99710.94;1672142;85;21047;-81
2021/11/25 03:46:06;;;;;;;25.37;11.88;;;;;;;-3.16;82.33;99712.01;1646593;87;21070;-80
2021/11/25 03:48:33;;;;;;;31.00;13.75;;;;;;;-3.19;82.47;99706.41;1667237;86;21012;-81
2021/11/25 03:51:04;;;;;;;28.15;12.18;;;;;;;-3.19;82.77;99701.31;1696120;84;21555;-82
2021/11/25 03:53:33;;;;;;;30.70;13.13;;;;;;;-3.22;82.72;99707.58;1684314;84;21067;-81
2021/11/25 03:56:00;;;;;;;26.33;12.80;;;;;;;-3.29;82.61;99704.31;1685430;84;21025;-81
2021/11/25 03:58:27;;;;;;;37.03;15.68;;;;;;;-3.28;82.78;99708.60;1662386;86;21012;-81
2021/11/25 04:00:54;;;;;;;40.80;16.00;;;;;;;-3.31;82.83;99709.73;1670657;86;20988;-81
2021/11/25 04:03:22;;;;;;;34.13;14.58;;;;;;;-3.31;83.05;99706.78;1678278;84;20979;-80
2021/11/25 04:05:49;;;;;;;33.63;14.13;;;;;;;-3.30;83.07;99703.45;1677032;84;21067;-81
2021/11/25 04:08:16;;;;;;;31.37;13.40;;;;;;;-3.28;83.23;99696.75;1670210;85;21047;-81
2021/11/25 04:10:44;;;;;;;35.70;15.05;;;;;;;-3.30;83.21;99697.47;1668523;85;21092;-80
2021/11/25 04:13:11;;;;;;;39.42;15.38;;;;;;;-3.30;83.27;99688.57;1672560;86;21063;-82
2021/11/25 04:15:38;;;;;;;33.83;14.05;;;;;;;-3.28;83.25;99692.08;1660376;86;21004;-81
2021/11/25 04:18:05;;;;;;;39.48;13.30;;;;;;;-3.30;83.21;99693.28;1672744;86;21034;-81
2021/11/25 04:20:33;;;;;;;35.30;15.93;;;;;;;-3.31;83.45;99690.66;1664584;86;21008;-81
2021/11/25 04:23:00;;;;;;;37.80;14.20;;;;;;;-3.32;83.37;99696.55;1673145;86;20988;-81
2021/11/25 04:25:27;;;;;;;40.95;15.83;;;;;;;-3.30;83.57;99693.66;1677871;84;21016;-81
2021/11/25 04:27:54;;;;;;;42.88;17.82;;;;;;;-3.29;83.78;99695.41;1697603;84;21022;-82
2021/11/25 04:35:34;;;;;;;58.52;25.72;;;;;;;-3.23;84.28;99691.84;1660597;86;21048;-81
2021/11/25 04:38:16;;;;;;;52.53;19.48;;;;;;;-3.22;83.80;99685.55;1668730;86;21278;-81
2021/11/25 04:40:48;;;;;;;47.90;20.50;;;;;;;-3.22;84.51;99685.95;1671587;84;21027;-80
2021/11/25 04:43:17;;;;;;;40.55;17.00;;;;;;;-3.21;84.69;99683.86;1676048;84;21058;-80
2021/11/25 04:45:46;;;;;;;51.73;18.98;;;;;;;-3.19;84.70;99680.97;1671956;84;20976;-81
2021/11/25 04:48:15;;;;;;;41.75;17.27;;;;;;;-3.13;85.16;99681.20;1668912;84;21512;-80
2021/11/25 04:50:44;;;;;;;47.85;16.95;;;;;;;-3.12;84.89;99687.16;1670161;86;21062;-79
2021/11/25 04:53:12;;;;;;;45.65;16.77;;;;;;;-3.09;85.10;99685.61;1663299;86;21044;-80
2021/11/25 04:55:39;;;;;;;42.62;16.07;;;;;;;-3.03;85.27;99679.89;1666645;85;21016;-81
2021/11/25 04:58:06;;;;;;;40.38;15.98;;;;;;;-3.01;84.88;99682.09;1671748;85;20997;-81
2021/11/25 05:00:33;;;;;;;41.83;14.73;;;;;;;-3.00;84.27;99683.84;1670762;85;21075;-81
2021/11/25 05:03:00;;;;;;;45.92;15.85;;;;;;;-3.04;85.07;99679.03;1666770;86;21076;-81
2021/11/25 05:05:27;;;;;;;41.48;16.70;;;;;;;-3.02;85.65;99679.09;1664936;86;21084;-81
2021/11/25 05:07:54;;;;;;;51.77;17.02;;;;;;;-3.05;84.95;99682.37;1683561;84;21051;-82
2021/11/25 05:10:20;;;;;;;39.65;15.55;;;;;;;-3.04;85.84;99676.49;1682510;83;21139;-82
2021/11/25 05:12:47;;;;;;;47.35;18.80;;;;;;;-2.98;85.53;99673.31;1669214;86;21038;-80
2021/11/25 05:15:16;;;;;;;44.70;17.32;;;;;;;-3.00;85.58;99673.25;1683210;84;21011;-81
2021/11/25 05:17:43;;;;;;;46.55;16.20;;;;;;;-2.96;84.83;99669.53;1669025;84;21110;-81
2021/11/25 05:20:14;;;;;;;33.55;14.07;;;;;;;-2.99;84.92;99667.75;1672853;86;21023;-80
2021/11/25 05:22:41;;;;;;;39.08;15.05;;;;;;;-3.01;85.34;99667.69;1673313;86;21008;-82
2021/11/25 05:25:09;;;;;;;39.25;15.78;;;;;;;-3.01;85.14;99663.87;1668502;85;20984;-81
2021/11/25 05:27:36;;;;;;;48.45;16.20;;;;;;;-2.97;86.00;99662.31;1663925;84;21007;-81
2021/11/25 05:30:06;;;;;;;42.83;16.40;;;;;;;-2.95;86.12;99653.48;1662945;85;21017;-80
2021/11/25 05:32:33;;;;;;;43.48;17.02;;;;;;;-2.84;85.92;99663.67;1661261;85;20979;-82
2021/11/25 05:35:00;;;;;;;39.98;16.10;;;;;;;-2.80;86.00;99660.42;1663822;84;21071;-80
2021/11/25 05:37:26;;;;;;;53.73;17.40;;;;;;;-2.75;86.34;99661.45;1668437;86;21200;-81
2021/11/25 05:39:52;;;;;;;39.98;16.73;;;;;;;-2.68;86.00;99658.73;1654577;84;21017;-80
2021/11/25 05:42:19;;;;;;;56.35;20.20;;;;;;;-2.65;85.71;99657.15;1652765;85;21038;-80
2021/11/25 05:44:47;;;;;;;53.33;19.05;;;;;;;-2.64;85.42;99663.98;1679890;85;21047;-80
2021/11/25 05:47:14;;;;;;;96.28;36.50;;;;;;;-2.57;85.57;99661.67;1682670;85;21118;-81
2021/11/25 05:49:40;;;;;;;46.35;19.30;;;;;;;-2.58;85.00;99665.05;1656858;85;21561;-80
2021/11/25 05:52:07;;;;;;;51.10;18.75;;;;;;;-2.56;85.08;99660.88;1665488;86;21044;-81
2021/11/25 05:54:34;;;;;;;72.27;25.45;;;;;;;-2.54;84.80;99671.56;1660501;85;21108;-81
2021/11/25 05:57:00;;;;;;;58.42;22.30;;;;;;;-2.63;84.36;99672.11;1665299;86;21066;-81
2021/11/25 05:59:26;;;;;;;56.35;18.60;;;;;;;-2.71;84.55;99667.11;1670507;84;21056;-81
2021/11/25 06:01:53;;;;;;;71.47;32.20;;;;;;;-2.76;84.72;99665.23;1669033;86;21047;-82
2021/11/25 06:04:19;;;;;;;45.45;18.32;;;;;;;-2.76;84.88;99667.77;1669215;86;21004;-81
2021/11/25 06:06:46;;;;;;;60.00;25.43;;;;;;;-2.76;84.88;99668.63;1661611;86;21058;-81
2021/11/25 06:09:13;;;;;;;47.08;19.65;;;;;;;-2.75;85.06;99665.27;1607608;88;21090;-79
2021/11/25 06:11:39;;;;;;;58.35;20.17;;;;;;;-2.76;84.87;99666.09;1634731;87;21160;-82
2021/11/25 06:14:06;;;;;;;51.63;21.12;;;;;;;-2.87;85.17;99658.45;1636795;87;21025;-79
2021/11/25 06:16:32;;;;;;;57.80;20.17;;;;;;;-2.86;85.48;99658.92;1670000;84;21512;-80
2021/11/25 06:18:58;;;;;;;42.80;17.57;;;;;;;-2.91;84.99;99655.33;1689087;84;20995;-82
2021/11/25 06:21:25;;;;;;;47.98;17.07;;;;;;;-2.97;85.07;99657.64;1672744;84;21044;-81
2021/11/25 06:23:51;;;;;;;47.88;17.92;;;;;;;-3.06;85.70;99662.84;1671672;86;21113;-81
2021/11/25 06:26:17;;;;;;;49.33;18.50;;;;;;;-3.04;85.59;99665.45;1686158;84;21020;-81
2021/11/25 06:28:44;;;;;;;53.20;19.77;;;;;;;-2.97;86.13;99657.23;1668462;84;21044;-81
2021/11/25 06:31:10;;;;;;;49.35;17.32;;;;;;;-2.91;86.08;99657.87;1668787;85;21052;-81
2021/11/25 06:33:37;;;;;;;41.88;15.45;;;;;;;-2.89;85.70;99652.02;1671930;85;21014;-81
2021/11/25 06:36:04;;;;;;;49.42;17.70;;;;;;;-2.92;86.59;99648.52;1673799;86;21008;-82
2021/11/25 06:38:30;;;;;;;51.30;18.85;;;;;;;-2.91;86.58;99648.97;1672207;84;20999;-81
2021/11/25 06:40:57;;;;;;;41.35;17.82;;;;;;;-2.93;87.02;99656.95;1658737;86;20997;-80
2021/11/25 06:43:24;;;;;;;53.23;19.82;;;;;;;-2.82;86.59;99648.05;1668955;86;21019;-81
2021/11/25 06:45:51;;;;;;;52.73;20.30;;;;;;;-2.81;87.11;99643.41;1696157;84;21437;-79
2021/11/25 06:48:17;;;;;;;49.73;17.92;;;;;;;-2.83;87.15;99644.61;1665043;86;21040;-81
2021/11/25 06:50:44;;;;;;;47.67;18.25;;;;;;;-2.75;87.02;99641.08;1663541;85;21014;-81
2021/11/25 06:53:11;;;;;;;52.45;24.75;;;;;;;-2.60;86.57;99644.20;1653976;84;20996;-82
2021/11/25 06:55:38;;;;;;;60.80;19.75;;;;;;;-2.63;86.17;99636.47;1666067;85;21036;-81
2021/11/25 06:58:04;;;;;;;54.80;20.05;;;;;;;-2.55;86.42;99638.41;1660239;85;21047;-81
2021/11/25 07:00:31;;;;;;;57.70;21.37;;;;;;;-2.44;86.14;99633.30;1625260;86;21026;-81
2021/11/25 07:02:58;;;;;;;56.35;18.95;;;;;;;-2.49;85.91;99634.39;1614751;88;21056;-80
2021/11/25 07:05:26;;;;;;;61.68;19.62;;;;;;;-2.53;86.16;99630.00;1618042;88;21075;-82
2021/11/25 07:07:54;;;;;;;65.57;19.25;;;;;;;-2.55;86.20;99629.49;1620525;86;21089;-82
2021/11/25 07:10:21;;;;;;;56.95;20.65;;;;;;;-2.49;85.94;99633.53;1632559;87;21090;-79
2021/11/25 07:12:49;;;;;;;66.42;23.75;;;;;;;-2.51;85.96;99632.61;1675006;84;21010;-78
2021/11/25 07:15:19;;;;;;;59.67;21.30;;;;;;;-2.50;85.89;99632.67;1680576;84;21030;-79
2021/11/25 07:17:46;;;;;;;61.92;21.75;;;;;;;-2.51;85.76;99630.92;1678342;84;21016;-79
2021/11/25 07:20:14;;;;;;;65.60;25.25;;;;;;;-2.41;85.82;99626.64;1671809;84;21067;-80
2021/11/25 07:22:42;;;;;;;51.25;20.20;;;;;;;-2.46;85.49;99613.28;1671798;84;21049;-79
2021/11/25 07:25:10;;;;;;;35.52;15.53;;;;;;;-2.49;85.98;99621.66;1663106;84;21063;-78
2021/11/25 07:27:40;;;;;;;55.92;20.10;;;;;;;-2.50;85.90;99613.98;1675565;84;21031;-79
2021/11/25 07:30:09;;;;;;;49.00;18.98;;;;;;;-2.51;86.27;99613.09;1657376;84;21114;-78
2021/11/25 07:32:37;;;;;;;61.13;19.12;;;;;;;-2.46;86.14;99617.10;1673446;84;21086;-80
2021/11/25 07:35:05;;;;;;;50.80;18.85;;;;;;;-2.50;86.42;99612.30;1671115;84;21146;-79
2021/11/25 07:37:32;;;;;;;53.48;19.27;;;;;;;-2.45;86.27;99605.70;1667431;85;21054;-81
2021/11/25 07:39:58;;;;;;;53.68;20.15;;;;;;;-2.43;86.66;99610.83;1663084;84;20977;-83
2021/11/25 07:42:25;;;;;;;73.70;21.80;;;;;;;-2.33;86.21;99612.02;1657736;85;21086;-81
2021/11/25 07:44:51;;;;;;;47.83;17.70;;;;;;;-2.35;86.04;99609.41;1668858;84;21055;-78
2021/11/25 07:47:22;;;;;;;49.25;16.50;;;;;;;-2.29;86.05;99608.38;1669156;84;21020;-80
2021/11/25 07:49:46;;;;;;;46.45;16.65;;;;;;;-2.28;85.95;99611.37;1660433;84;21019;-80
2021/11/25 07:52:13;;;;;;;43.42;16.32;;;;;;;-2.21;85.55;99612.05;1674476;84;21063;-78
2021/11/25 07:54:39;;;;;;;39.83;16.60;;;;;;;-2.20;85.75;99604.00;1676078;84;21606;-79
2021/11/25 07:57:07;;;;;;;52.13;18.48;;;;;;;-2.18;86.01;99607.88;1646589;85;21043;-79
2021/11/25 07:59:34;;;;;;;40.80;15.83;;;;;;;-2.15;86.47;99610.51;1635104;86;21016;-81
2021/11/25 08:02:01;;;;;;;42.25;16.57;;;;;;;-2.01;85.80;99604.19;1629015;86;21057;-77
2021/11/25 08:04:27;;;;;;;36.83;14.20;;;;;;;-2.06;86.47;99601.91;1637057;86;21004;-81
2021/11/25 08:06:53;;;;;;;42.48;16.73;;;;;;;-2.02;86.61;99594.83;1627210;86;21008;-80
2021/11/25 08:09:19;;;;;;;43.38;16.55;;;;;;;-1.97;86.57;99588.22;1642362;86;21076;-79
2021/11/25 08:11:46;;;;;;;41.23;15.95;;;;;;;-1.92;86.58;99585.39;1614922;87;21321;-80
2021/11/25 08:14:13;;;;;;;40.95;16.70;;;;;;;-1.86;86.14;99580.49;1635361;86;21074;-80
2021/11/25 08:16:40;;;;;;;46.80;16.90;;;;;;;-1.85;86.23;99586.45;1643695;86;21047;-82
2021/11/25 08:19:07;;;;;;;46.05;17.15;;;;;;;-1.91;85.78;99588.41;1641568;86;21131;-80
2021/11/25 08:21:34;;;;;;;35.23;13.85;;;;;;;-1.88;86.17;99588.50;1639197;86;21024;-80
2021/11/25 08:24:01;;;;;;;37.48;14.23;;;;;;;-1.84;86.08;99581.41;1611796;87;21065;-77
2021/11/25 08:26:28;;;;;;;46.25;18.17;;;;;;;-1.82;86.21;99576.37;1613434;86;21037;-79
2021/11/25 08:28:54;;;;;;;45.05;15.95;;;;;;;-1.84;85.75;99581.82;1617916;86;21090;-79
2021/11/25 08:31:21;;;;;;;40.55;15.32;;;;;;;-1.86;86.06;99579.63;1626716;86;22325;-78
2021/11/25 08:33:47;;;;;;;44.75;15.78;;;;;;;-1.80;85.92;99572.19;1615242;86;21107;-77
2021/11/25 08:36:14;;;;;;;46.95;17.20;;;;;;;-1.75;86.63;99572.32;1666578;84;21294;-78
2021/11/25 08:38:41;;;;;;;46.70;16.02;;;;;;;-1.61;86.19;99574.92;1669536;84;21593;-78
2021/11/25 08:41:08;;;;;;;38.38;15.83;;;;;;;-1.56;86.24;99566.98;1668793;84;21031;-78
2021/11/25 08:43:35;;;;;;;36.60;15.78;;;;;;;-1.57;86.04;99565.66;1663154;84;21028;-82
2021/11/25 08:46:02;;;;;;;43.10;15.15;;;;;;;-1.55;86.10;99565.30;1658885;85;21062;-80
2021/11/25 08:48:29;;;;;;;42.45;15.25;;;;;;;-1.52;85.69;99566.26;1649062;85;21749;-79
2021/11/25 08:50:57;;;;;;;46.60;16.25;;;;;;;-1.52;85.98;99566.26;1671418;84;21082;-79
2021/11/25 08:53:24;;;;;;;41.02;15.50;;;;;;;-1.47;85.80;99553.67;1668918;84;21055;-81
2021/11/25 08:55:51;;;;;;;38.00;14.40;;;;;;;-1.47;86.18;99553.67;1666803;84;21052;-82
2021/11/25 08:58:18;;;;;;;36.28;14.75;;;;;;;-1.41;86.09;99547.48;1663489;84;21078;-82
2021/11/25 09:00:44;;;;;;;44.35;15.58;;;;;;;-1.35;86.08;99544.22;1673938;82;21107;-83
2021/11/25 09:03:11;;;;;;;36.80;15.10;;;;;;;-1.31;85.93;99538.42;1655044;83;21090;-82
2021/11/25 09:06:02;;;;;;;38.28;14.60;;;;;;;-1.20;86.31;99539.58;1618980;84;21150;31
2021/11/25 09:08:29;;;;;;;41.68;13.13;;;;;;;-1.12;86.22;99533.42;1630104;83;21047;-81
2021/11/25 09:10:56;;;;;;;34.27;14.15;;;;;;;-1.13;85.37;99537.67;1722130;82;21013;-82
2021/11/25 09:13:23;;;;;;;49.03;14.85;;;;;;;-1.09;85.71;99539.48;1722072;82;21094;-82
2021/11/25 09:15:50;;;;;;;38.42;14.18;;;;;;;-1.02;85.63;99529.89;1720167;82;21024;-82
2021/11/25 09:18:17;;;;;;;36.03;12.85;;;;;;;-0.98;85.16;99523.19;1717401;82;21010;-83
2021/11/25 09:20:43;;;;;;;40.23;14.43;;;;;;;-1.01;85.44;99513.77;1686656;83;21026;-82
2021/11/25 09:23:14;;;;;;;38.53;14.90;;;;;;;-0.95;85.39;99510.53;1681098;83;21051;-82
2021/11/25 09:25:42;;;;;;;41.68;14.98;;;;;;;-0.96;85.44;99504.95;1705412;83;21047;-82
2021/11/25 09:28:12;;;;;;;41.53;15.43;;;;;;;-0.98;85.38;99495.11;1741534;82;20952;-82
2021/11/25 09:30:39;;;;;;;36.03;13.93;;;;;;;-0.91;85.36;99488.52;1683512;83;21012;-81
2021/11/25 09:33:07;;;;;;;41.83;15.95;;;;;;;-0.82;85.60;99490.02;1679343;85;21046;-83
2021/11/25 09:35:34;;;;;;;38.38;14.13;;;;;;;-0.77;84.95;99488.46;1693491;83;21016;-82
2021/11/25 09:38:00;;;;;;;41.73;14.85;;;;;;;-0.87;84.98;99489.05;1708249;82;21089;-82
2021/11/25 09:40:28;;;;;;;39.63;14.65;;;;;;;-0.89;85.38;99488.14;1674145;83;21106;-83
2021/11/25 09:42:59;;;;;;;36.33;15.60;;;;;;;-0.80;85.25;99488.37;1688626;84;21087;-83
2021/11/25 09:45:27;;;;;;;43.52;16.87;;;;;;;-0.75;85.04;99482.13;1698743;83;21013;-82
2021/11/25 09:47:59;;;;;;;43.65;16.55;;;;;;;-0.77;84.82;99476.12;1693655;82;23364;-81
2021/11/25 09:50:29;;;;;;;52.65;18.17;;;;;;;-0.86;85.04;99472.47;1718938;81;21044;-81
2021/11/25 09:53:01;;;;;;;51.30;18.62;;;;;;;-0.84;85.85;99475.92;1693552;82;21173;-84
2021/11/25 09:55:29;;;;;;;46.77;16.90;;;;;;;-0.69;85.80;99465.27;1667647;83;21176;-80
2021/11/25 09:58:06;;;;;;;41.70;18.00;;;;;;;-0.59;85.69;99461.69;1636136;85;21153;31
2021/11/25 10:00:33;;;;;;;49.08;17.32;;;;;;;-0.56;85.06;99456.64;1589290;89;21052;-79
2021/11/25 10:03:01;;;;;;;44.27;17.37;;;;;;;-0.49;85.30;99453.42;1566559;89;21054;-81
2021/11/25 10:05:27;;;;;;;47.95;17.67;;;;;;;-0.41;85.37;99457.89;1581791;89;21059;-80
2021/11/25 10:07:54;;;;;;;53.05;18.67;;;;;;;-0.37;84.93;99449.89;1610844;88;21115;-80
2021/11/25 10:10:33;;;;;;;47.67;17.45;;;;;;;-0.34;84.43;99448.67;1581252;88;21574;-79
2021/11/25 10:13:23;;;;;;;43.83;17.52;;;;;;;-0.39;84.56;99443.88;1569846;89;21059;-78
2021/11/25 10:15:47;;;;;;;51.80;18.42;;;;;;;-0.46;85.12;99448.38;1573906;88;21118;-79
2021/11/25 10:18:17;;;;;;;50.05;16.50;;;;;;;-0.37;85.05;99443.50;1569613;88;21075;-79
2021/11/25 10:20:47;;;;;;;57.88;19.67;;;;;;;-0.28;85.17;99433.52;1587530;88;21055;-79
2021/11/25 10:23:26;;;;;;;46.50;18.95;;;;;;;-0.24;84.93;99427.65;1609847;87;21108;-79
2021/11/25 10:26:03;;;;;;;50.60;19.27;;;;;;;-0.12;85.53;99427.47;1598866;88;21072;-79
2021/11/25 10:28:52;;;;;;;51.85;18.77;;;;;;;0.04;85.17;99418.06;1600662;87;21067;-83
2021/11/25 10:31:39;;;;;;;55.38;19.42;;;;;;;0.12;84.69;99415.25;1597283;87;21045;-82
2021/11/25 10:34:12;;;;;;;47.27;16.57;;;;;;;0.21;85.12;99412.45;1600283;87;21055;-81
2021/11/25 10:37:17;;;;;;;54.98;20.88;;;;;;;0.32;84.54;99405.45;1630766;86;21016;-80
2021/11/25 10:42:35;;;;;;;55.00;18.70;;;;;;;0.36;84.09;99397.44;1627759;87;21040;-83
2021/11/25 10:45:12;;;;;;;45.58;17.50;;;;;;;0.47;84.22;99397.64;1598313;89;20996;-80
2021/11/25 10:47:39;;;;;;;50.03;19.32;;;;;;;0.56;84.31;99394.85;1608717;87;21393;-79
2021/11/25 10:50:14;;;;;;;42.25;16.87;;;;;;;0.61;83.52;99397.49;1587970;88;21059;-80
2021/11/25 10:52:44;;;;;;;41.05;16.17;;;;;;;0.53;83.58;99388.80;1597043;88;21859;-81
2021/11/25 10:55:19;;;;;;;51.20;17.62;;;;;;;0.46;83.50;99383.11;1629863;85;21020;-82
2021/11/25 10:57:56;;;;;;;49.83;20.57;;;;;;;0.46;84.00;99375.05;1626255;85;21027;-82
2021/11/25 11:00:39;;;;;;;58.25;21.50;;;;;;;0.53;83.81;99373.03;1627393;85;21029;-80
2021/11/25 11:03:23;;;;;;;56.18;19.20;;;;;;;0.67;83.92;99373.72;1632005;86;21078;-78
2021/11/25 11:05:59;;;;;;;53.05;19.23;;;;;;;0.68;82.86;99364.80;1619501;86;21098;-80
2021/11/25 11:08:29;;;;;;;51.85;17.70;;;;;;;0.62;83.35;99354.84;1645833;83;20999;-80
2021/11/25 11:11:02;;;;;;;48.95;19.42;;;;;;;0.64;83.32;99357.02;1623810;88;21103;-85
2021/11/25 11:13:46;;;;;;;48.68;18.40;;;;;;;0.66;83.18;99356.66;1629391;85;21091;-82
2021/11/25 11:16:27;;;;;;;50.75;19.87;;;;;;;0.62;83.05;99344.61;1616069;88;21578;-80
2021/11/25 11:19:00;;;;;;;43.68;17.62;;;;;;;0.64;83.04;99349.34;1602725;88;21095;-81
2021/11/25 11:21:48;;;;;;;;;;;;;;;0.73;82.84;99335.02;1596609;88;21635;-78
2021/11/25 11:24:21;;;;;;;52.08;19.17;;;;;;;0.72;83.09;99338.86;1593487;88;20472;-78
2021/11/25 11:26:55;;;;;;;55.12;18.23;;;;;;;0.70;83.13;99327.73;1601424;87;21059;-82
2021/11/25 11:29:29;;;;;;;53.45;18.23;;;;;;;0.78;83.12;99330.01;1623367;86;21063;-80
2021/11/25 11:31:58;;;;;;;;;;;;;;;0.91;83.20;99330.66;1636320;86;21082;-79
2021/11/25 11:34:27;;;;;;;59.15;20.27;;;;;;;0.89;82.52;99323.79;1624606;86;20855;-79